createdAt,value
2022-11-25T00:02:07.497Z,100331.69
2022-11-25T00:04:40.666Z,100327.16
2022-11-25T00:07:11.679Z,100331.28
2022-11-25T00:09:43.662Z,100326.16
2022-11-25T00:12:14.464Z,100331.88
2022-11-25T00:14:45.292Z,100339.09
2022-11-25T00:17:16.558Z,100335.09
2022-11-25T00:19:47.489Z,100356.84
2022-11-25T00:22:19.192Z,100337.53
2022-11-25T00:24:50.826Z,100338.28
2022-11-25T00:27:21.808Z,100339.19
2022-11-25T00:29:52.947Z,100350.47
2022-11-25T00:32:24.351Z,100347.19
2022-11-25T00:34:55.352Z,100351.13
2022-11-25T00:37:26.641Z,100351.03
2022-11-25T00:39:57.585Z,100339.75
2022-11-25T00:42:46.292Z,100328.66
2022-11-25T00:45:17.076Z,100330.16
2022-11-25T00:47:48.559Z,100327.09
2022-11-25T00:50:21.905Z,100342.06
2022-11-25T00:52:53.082Z,100332.78
2022-11-25T00:55:24.412Z,100348.75
2022-11-25T00:57:55.329Z,100352.38
2022-11-25T01:00:26.659Z,100371.47
2022-11-25T01:02:57.420Z,100358.56
2022-11-25T01:05:28.505Z,100379.41
2022-11-25T01:08:00.147Z,100366.91
2022-11-25T01:10:30.415Z,100362.50
2022-11-25T01:13:02.981Z,100358.78
2022-11-25T01:15:33.695Z,100366.66
2022-11-25T01:18:04.927Z,100367.16
2022-11-25T01:20:36.454Z,100356.19
2022-11-25T01:23:07.375Z,100353.66
2022-11-25T01:25:40.217Z,100354.25
2022-11-25T01:28:11.200Z,100351.06
2022-11-25T01:30:42.679Z,100360.72
2022-11-25T01:33:13.427Z,100367.06
2022-11-25T01:35:44.187Z,100373.13
2022-11-25T01:38:14.913Z,100386.50
2022-11-25T01:40:48.292Z,100389.59
2022-11-25T01:43:19.206Z,100405.16
2022-11-25T01:45:50.168Z,100411.72
2022-11-25T01:48:28.371Z,100411.63
2022-11-25T01:50:59.305Z,100401.88
2022-11-25T01:53:30.121Z,100395.97
2022-11-25T01:56:04.196Z,100395.16
2022-11-25T01:58:38.150Z,100378.59
2022-11-25T02:01:09.713Z,100373.50
2022-11-25T02:03:42.503Z,100374.34
2022-11-25T02:06:41.059Z,100384.72
2022-11-25T02:09:12.742Z,100378.28
2022-11-25T02:11:45.382Z,100372.13
2022-11-25T02:14:17.351Z,100365.13
2022-11-25T02:16:48.700Z,100359.25
2022-11-25T02:19:46.404Z,100371.06
2022-11-25T02:22:26.564Z,100365.88
2022-11-25T02:25:02.741Z,100353.16
2022-11-25T02:27:34.672Z,100352.50
2022-11-25T02:30:06.144Z,100349.13
2022-11-25T02:32:37.004Z,100354.09
2022-11-25T02:35:31.008Z,100354.09
2022-11-25T02:38:14.246Z,100381.00
2022-11-25T02:41:25.161Z,100371.88
2022-11-25T02:44:01.608Z,100360.16
2022-11-25T02:46:32.911Z,100351.56
2022-11-25T02:49:09.921Z,100350.06
2022-11-25T02:51:46.783Z,100350.81
2022-11-25T02:54:18.342Z,100352.69
2022-11-25T02:56:49.095Z,100348.75
2022-11-25T02:59:20.318Z,100345.00
2022-11-25T03:01:51.739Z,100341.78
2022-11-25T03:04:22.722Z,100353.44
2022-11-25T03:06:53.662Z,100362.13
2022-11-25T03:09:24.610Z,100361.88
2022-11-25T03:12:15.303Z,100357.50
2022-11-25T03:14:46.685Z,100366.78
2022-11-25T03:17:17.495Z,100375.69
2022-11-25T03:19:48.780Z,100378.66
2022-11-25T03:22:19.660Z,100370.81
2022-11-25T03:24:50.678Z,100363.16
2022-11-25T03:27:23.553Z,100368.00
2022-11-25T03:29:54.707Z,100368.09
2022-11-25T03:32:25.678Z,100371.06
2022-11-25T03:34:57.004Z,100376.22
2022-11-25T03:37:28.122Z,100378.50
2022-11-25T03:39:59.232Z,100389.59
2022-11-25T03:42:30.463Z,100382.16
2022-11-25T03:45:01.747Z,100387.06
2022-11-25T03:47:35.139Z,100374.47
2022-11-25T03:50:07.337Z,100367.25
2022-11-25T03:52:38.630Z,100365.91
2022-11-25T03:55:14.462Z,100362.44
2022-11-25T03:57:48.407Z,100356.09
2022-11-25T04:00:19.595Z,100359.38
2022-11-25T04:03:03.976Z,100351.94
2022-11-25T04:05:36.361Z,100358.56
2022-11-25T04:08:10.490Z,100360.56
2022-11-25T04:10:42.470Z,100354.09
2022-11-25T04:13:14.736Z,100358.50
2022-11-25T04:15:50.562Z,100368.25
2022-11-25T04:18:22.471Z,100368.03
2022-11-25T04:20:59.601Z,100368.91
2022-11-25T04:23:30.385Z,100374.81
2022-11-25T04:26:07.459Z,100355.84
2022-11-25T04:28:42.515Z,100365.00
2022-11-25T04:31:14.457Z,100357.16
2022-11-25T04:33:52.235Z,100361.75
2022-11-25T04:36:26.460Z,100353.72
2022-11-25T04:38:57.589Z,100364.72
2022-11-25T04:41:28.857Z,100359.63
2022-11-25T04:44:02.308Z,100365.94
2022-11-25T04:46:39.617Z,100363.22
2022-11-25T04:49:11.721Z,100356.94
2022-11-25T04:51:43.098Z,100371.31
2022-11-25T04:54:17.443Z,100369.69
2022-11-25T04:56:49.464Z,100372.94
2022-11-25T04:59:40.111Z,100373.78
2022-11-25T05:02:21.202Z,100374.69
2022-11-25T05:05:07.592Z,100371.13
2022-11-25T05:07:40.234Z,100371.03
2022-11-25T05:10:11.706Z,100376.00
2022-11-25T05:12:47.882Z,100377.25
2022-11-25T05:15:21.637Z,100380.97
2022-11-25T05:17:52.698Z,100375.88
2022-11-25T05:20:38.172Z,100370.88
2022-11-25T05:23:08.914Z,100362.63
2022-11-25T05:25:40.472Z,100388.47
2022-11-25T05:28:29.634Z,100382.94
2022-11-25T05:31:01.469Z,100376.03
2022-11-25T05:33:34.078Z,100381.69
2022-11-25T05:36:07.619Z,100379.25
2022-11-25T05:38:47.811Z,100385.97
2022-11-25T05:41:26.770Z,100381.75
2022-11-25T05:43:58.646Z,100380.97
2022-11-25T05:46:30.105Z,100388.50
2022-11-25T05:49:02.112Z,100386.53
2022-11-25T05:51:33.475Z,100399.47
2022-11-25T05:54:07.536Z,100396.22
2022-11-25T05:56:41.002Z,100397.88
2022-11-25T05:59:34.610Z,100414.00
2022-11-25T06:02:13.976Z,100419.13
2022-11-25T06:04:45.144Z,100412.41
2022-11-25T06:07:16.331Z,100403.78
2022-11-25T06:09:47.467Z,100410.28
2022-11-25T06:12:18.800Z,100416.41
2022-11-25T06:14:53.503Z,100426.19
2022-11-25T06:17:25.684Z,100414.22
2022-11-25T06:20:11.039Z,100425.06
2022-11-25T06:22:41.882Z,100424.09
2022-11-25T06:25:13.643Z,100426.97
2022-11-25T06:28:11.190Z,100421.94
2022-11-25T06:30:36.807Z,100423.41
2022-11-25T06:33:20.621Z,100432.38
2022-11-25T06:35:53.247Z,100432.13
2022-11-25T06:38:24.024Z,100437.00
2022-11-25T06:40:59.168Z,100429.44
2022-11-25T06:43:31.427Z,100434.38
2022-11-25T06:46:10.231Z,100433.00
2022-11-25T06:48:41.359Z,100442.75
2022-11-25T06:51:16.131Z,100439.53
2022-11-25T06:53:47.346Z,100447.16
2022-11-25T06:56:22.032Z,100452.06
2022-11-25T06:58:53.546Z,100446.91
2022-11-25T07:01:25.325Z,100453.44
2022-11-25T07:03:58.617Z,100439.09
2022-11-25T07:06:30.100Z,100450.47
2022-11-25T07:09:01.007Z,100458.59
2022-11-25T07:11:34.736Z,100462.09
2022-11-25T07:14:11.708Z,100467.78
2022-11-25T07:16:44.940Z,100464.03
2022-11-25T07:19:18.646Z,100455.66
2022-11-25T07:21:51.360Z,100470.53
2022-11-25T07:24:22.385Z,100461.34
2022-11-25T07:26:53.534Z,100462.16
2022-11-25T07:29:50.347Z,100462.72
2022-11-25T07:32:15.719Z,100462.44
2022-11-25T07:34:46.746Z,100458.09
2022-11-25T07:37:19.345Z,100474.91
2022-11-25T07:39:50.315Z,100476.75
2022-11-25T07:42:21.503Z,100480.31
2022-11-25T07:44:52.211Z,100490.84
2022-11-25T07:47:48.851Z,100490.03
2022-11-25T07:50:19.671Z,100502.44
2022-11-25T07:52:50.406Z,100500.00
2022-11-25T07:55:21.301Z,100501.66
2022-11-25T07:57:52.547Z,100480.78
2022-11-25T08:00:24.344Z,100500.00
2022-11-25T08:02:54.843Z,100501.88
2022-11-25T08:05:25.876Z,100493.53
2022-11-25T08:07:57.138Z,100502.16
2022-11-25T08:10:28.110Z,100495.09
2022-11-25T08:12:59.202Z,100506.72
2022-11-25T08:15:30.247Z,100509.41
2022-11-25T08:18:01.146Z,100505.31
2022-11-25T08:20:32.933Z,100513.19
2022-11-25T08:23:04.123Z,100515.41
2022-11-25T08:25:35.207Z,100515.03
2022-11-25T08:28:06.126Z,100520.47
2022-11-25T08:30:38.032Z,100533.72
2022-11-25T08:33:09.392Z,100537.50
2022-11-25T08:35:40.697Z,100541.28
2022-11-25T08:38:14.019Z,100534.53
2022-11-25T08:40:48.491Z,100541.09
2022-11-25T08:43:24.992Z,100540.03
2022-11-25T08:46:01.660Z,100537.72
2022-11-25T08:48:32.387Z,100545.00
2022-11-25T08:51:03.259Z,100542.13
2022-11-25T08:53:34.156Z,100544.22
2022-11-25T08:56:05.557Z,100542.03
2022-11-25T08:58:37.483Z,100542.34
2022-11-25T09:01:09.629Z,100552.66
2022-11-25T09:03:41.057Z,100547.88
2022-11-25T09:06:12.777Z,100553.28
2022-11-25T09:08:44.132Z,100555.06
2022-11-25T09:11:16.064Z,100538.69
2022-11-25T09:13:47.400Z,100553.69
2022-11-25T09:16:18.324Z,100551.63
2022-11-25T09:18:55.310Z,100556.97
2022-11-25T09:21:26.793Z,100554.72
2022-11-25T09:23:58.090Z,100558.16
2022-11-25T09:26:32.592Z,100553.16
2022-11-25T09:29:05.103Z,100557.72
2022-11-25T09:31:36.219Z,100553.66
2022-11-25T09:34:08.741Z,100555.22
2022-11-25T09:36:40.004Z,100561.44
2022-11-25T09:39:11.870Z,100562.09
2022-11-25T09:42:33.368Z,100560.94
2022-11-25T09:45:22.425Z,100571.72
2022-11-25T09:47:57.540Z,100571.41
2022-11-25T09:50:35.914Z,100567.59
2022-11-25T09:53:18.936Z,100568.84
2022-11-25T09:55:55.928Z,100566.59
2022-11-25T09:58:46.927Z,100568.78
2022-11-25T10:01:25.095Z,100566.56
2022-11-25T10:04:05.419Z,100579.25
2022-11-25T10:06:40.483Z,100574.44
2022-11-25T10:09:17.734Z,100571.75
2022-11-25T10:11:53.555Z,100583.38
2022-11-25T10:14:57.897Z,100589.13
2022-11-25T10:17:38.492Z,100586.94
2022-11-25T10:20:17.341Z,100589.28
2022-11-25T10:22:50.698Z,100590.44
2022-11-25T10:25:27.883Z,100585.16
2022-11-25T10:28:13.010Z,100604.97
2022-11-25T10:30:53.625Z,100598.22
2022-11-25T10:33:52.605Z,100603.06
2022-11-25T10:36:49.934Z,100612.53
2022-11-25T10:39:33.220Z,100600.84
2022-11-25T10:42:16.497Z,100600.09
2022-11-25T10:44:47.440Z,100608.34
2022-11-25T10:47:33.592Z,100607.66
2022-11-25T10:50:36.257Z,100601.19
2022-11-25T10:53:15.725Z,100596.34
2022-11-25T10:56:01.999Z,100600.22
2022-11-25T10:58:39.537Z,100608.09
2022-11-25T11:01:24.474Z,100605.59
2022-11-25T11:04:07.885Z,100612.16
2022-11-25T11:06:41.327Z,100613.22
2022-11-25T11:09:38.051Z,100612.69
2022-11-25T11:12:24.028Z,100617.06
2022-11-25T11:14:56.721Z,100610.53
2022-11-25T11:17:37.814Z,100617.59
2022-11-25T11:20:15.691Z,100610.06
2022-11-25T11:22:54.174Z,100615.38
2022-11-25T11:25:28.984Z,100610.66
2022-11-25T11:28:01.429Z,100609.25
2022-11-25T11:30:34.729Z,100610.25
2022-11-25T11:33:09.389Z,100616.19
2022-11-25T11:35:56.381Z,100609.75
2022-11-25T11:38:27.217Z,100606.69
2022-11-25T11:41:07.806Z,100609.09
2022-11-25T11:44:00.040Z,100608.06
2022-11-25T11:46:55.188Z,100609.50
2022-11-25T11:49:52.190Z,100603.03
2022-11-25T11:52:35.063Z,100593.88
2022-11-25T11:55:29.099Z,100594.03
2022-11-25T11:58:44.404Z,100600.59
2022-11-25T12:01:39.419Z,100593.41
2022-11-25T12:04:41.996Z,100598.44
2022-11-25T12:07:47.956Z,100581.59
2022-11-25T12:10:43.223Z,100579.97
2022-11-25T12:13:40.563Z,100583.19
2022-11-25T12:16:20.027Z,100580.78
2022-11-25T12:19:16.355Z,100581.94
2022-11-25T12:22:08.596Z,100593.81
2022-11-25T12:25:08.383Z,100589.63
2022-11-25T12:28:19.861Z,100591.41
2022-11-25T12:31:29.187Z,100603.78
2022-11-25T12:34:08.239Z,100591.84
2022-11-25T12:36:43.426Z,100589.44
2022-11-25T12:39:27.902Z,100591.28
2022-11-25T12:42:11.159Z,100595.91
2022-11-25T12:45:09.414Z,100599.56
2022-11-25T12:47:40.348Z,100581.47
2022-11-25T12:50:23.518Z,100590.09
2022-11-25T12:53:10.494Z,100588.97
2022-11-25T12:55:42.248Z,100570.09
2022-11-25T12:58:37.854Z,100578.75
2022-11-25T13:01:27.753Z,100564.38
2022-11-25T13:04:20.302Z,100574.63
2022-11-25T13:07:09.592Z,100566.03
2022-11-25T13:10:01.974Z,100563.63
2022-11-25T13:12:54.695Z,100565.75
2022-11-25T13:15:47.617Z,100560.66
2022-11-25T13:18:24.384Z,100554.38
2022-11-25T13:20:59.286Z,100560.84
2022-11-25T13:23:31.973Z,100555.66
2022-11-25T13:26:30.714Z,100551.88
2022-11-25T13:29:03.252Z,100554.34
2022-11-25T13:31:59.398Z,100553.78
2022-11-25T13:34:37.828Z,100550.44
2022-11-25T13:37:38.281Z,100552.44
2022-11-25T13:40:31.790Z,100560.38
2022-11-25T13:43:03.310Z,100552.75
2022-11-25T13:45:41.065Z,100550.97
2022-11-25T13:48:22.598Z,100556.06
2022-11-25T13:51:10.812Z,100551.50
2022-11-25T13:53:43.134Z,100546.59
2022-11-25T13:56:30.683Z,100539.47
2022-11-25T13:59:13.871Z,100542.66
2022-11-25T14:02:36.767Z,100539.38
2022-11-25T14:05:14.270Z,100533.50
2022-11-25T14:08:12.806Z,100531.63
2022-11-25T14:11:20.073Z,100534.19
2022-11-25T14:13:50.964Z,100535.50
2022-11-25T14:16:43.775Z,100529.84
2022-11-25T14:19:53.145Z,100536.06
2022-11-25T14:22:46.615Z,100527.69
2022-11-25T14:25:31.687Z,100523.63
2022-11-25T14:28:32.027Z,100534.47
2022-11-25T14:31:07.474Z,100528.84
2022-11-25T14:33:54.063Z,100520.47
2022-11-25T14:36:32.417Z,100519.38
2022-11-25T14:39:09.222Z,100529.44
2022-11-25T14:41:46.452Z,100535.31
2022-11-25T14:44:23.297Z,100532.63
2022-11-25T14:46:59.703Z,100534.69
2022-11-25T14:50:05.366Z,100542.78
2022-11-25T14:52:39.410Z,100540.91
2022-11-25T14:55:11.263Z,100539.94
2022-11-25T14:57:46.755Z,100527.59
2022-11-25T15:00:20.105Z,100533.94
2022-11-25T15:03:04.673Z,100533.09
2022-11-25T15:05:41.037Z,100535.84
2022-11-25T15:08:13.118Z,100538.00
2022-11-25T15:10:53.386Z,100545.63
2022-11-25T15:13:44.370Z,100536.94
2022-11-25T15:16:18.225Z,100538.81
2022-11-25T15:18:54.980Z,100531.47
2022-11-25T15:21:34.141Z,100529.31
2022-11-25T15:24:06.592Z,100535.22
2022-11-25T15:26:39.071Z,100533.94
2022-11-25T15:29:15.214Z,100527.91
2022-11-25T15:31:48.812Z,100529.28
2022-11-25T15:34:22.798Z,100536.88
2022-11-25T15:36:54.687Z,100545.53
2022-11-25T15:39:29.561Z,100541.53
2022-11-25T15:42:24.740Z,100545.78
2022-11-25T15:44:56.065Z,100539.53
2022-11-25T15:47:31.712Z,100544.41
2022-11-25T15:50:04.761Z,100545.13
2022-11-25T15:52:38.267Z,100545.97
2022-11-25T15:55:35.089Z,100539.72
2022-11-25T15:58:16.845Z,100540.75
2022-11-25T16:01:03.332Z,100545.72
2022-11-25T16:03:36.742Z,100546.03
2022-11-25T16:06:21.149Z,100544.72
2022-11-25T16:09:02.855Z,100542.06
2022-11-25T16:11:46.936Z,100543.09
2022-11-25T16:14:39.081Z,100534.78
2022-11-25T16:17:14.186Z,100541.97
2022-11-25T16:19:47.538Z,100543.50
2022-11-25T16:22:20.394Z,100547.34
2022-11-25T16:25:02.205Z,100545.41
2022-11-25T16:27:34.020Z,100547.41
2022-11-25T16:30:08.186Z,100552.53
2022-11-25T16:32:39.742Z,100550.25
2022-11-25T16:35:23.743Z,100548.72
2022-11-25T16:38:00.019Z,100542.41
2022-11-25T16:40:31.175Z,100542.03
2022-11-25T16:43:03.177Z,100553.59
2022-11-25T16:45:34.496Z,100551.13
2022-11-25T16:48:10.815Z,100562.25
2022-11-25T16:50:42.069Z,100565.88
2022-11-25T16:53:13.286Z,100563.56
2022-11-25T16:55:47.259Z,100568.41
2022-11-25T16:58:21.914Z,100563.91
2022-11-25T17:00:56.111Z,100565.72
2022-11-25T17:03:28.112Z,100570.53
2022-11-25T17:05:59.493Z,100566.69
2022-11-25T17:08:30.487Z,100572.09
2022-11-25T17:11:01.831Z,100573.63
2022-11-25T17:13:32.589Z,100580.28
2022-11-25T17:16:03.478Z,100572.44
2022-11-25T17:18:34.497Z,100575.19
2022-11-25T17:21:05.373Z,100585.88
2022-11-25T17:23:36.638Z,100584.81
2022-11-25T17:26:07.907Z,100593.47
2022-11-25T17:28:38.910Z,100594.69
2022-11-25T17:31:11.965Z,100595.91
2022-11-25T17:33:47.494Z,100597.38
2022-11-25T17:36:18.663Z,100600.22
2022-11-25T17:38:49.878Z,100607.13
2022-11-25T17:41:25.690Z,100595.94
2022-11-25T17:43:57.885Z,100598.22
2022-11-25T17:46:31.011Z,100606.53
2022-11-25T17:49:01.960Z,100611.03
2022-11-25T17:51:32.934Z,100607.25
2022-11-25T17:54:03.904Z,100602.06
2022-11-25T17:56:35.239Z,100603.28
2022-11-25T17:59:11.850Z,100611.91
2022-11-25T18:01:42.971Z,100612.97
2022-11-25T18:04:43.827Z,100595.78
2022-11-25T18:07:14.805Z,100612.25
2022-11-25T18:09:46.501Z,100610.66
2022-11-25T18:12:37.867Z,100608.44
2022-11-25T18:15:09.833Z,100606.13
2022-11-25T18:17:41.110Z,100610.50
2022-11-25T18:20:23.825Z,100620.91
2022-11-25T18:22:55.558Z,100615.81
2022-11-25T18:25:30.127Z,100605.63
2022-11-25T18:28:01.921Z,100617.00
2022-11-25T18:30:35.507Z,100616.22
2022-11-25T18:33:08.110Z,100608.38
2022-11-25T18:35:38.917Z,100611.44
2022-11-25T18:38:10.357Z,100607.16
2022-11-25T18:40:45.570Z,100611.47
2022-11-25T18:43:24.965Z,100614.19
2022-11-25T18:45:57.184Z,100614.75
2022-11-25T18:48:29.056Z,100616.66
2022-11-25T18:50:59.936Z,100624.50
2022-11-25T18:53:31.136Z,100626.69
2022-11-25T18:56:02.617Z,100592.19
2022-11-25T18:58:34.533Z,100617.34
2022-11-25T19:01:06.122Z,100610.19
2022-11-25T19:03:37.223Z,100616.59
2022-11-25T19:06:08.648Z,100609.22
2022-11-25T19:08:39.642Z,100616.25
2022-11-25T19:11:20.382Z,100609.97
2022-11-25T19:13:54.854Z,100620.56
2022-11-25T19:16:26.085Z,100608.97
2022-11-25T19:18:57.407Z,100611.34
2022-11-25T19:21:28.368Z,100610.41
2022-11-25T19:23:59.528Z,100617.69
2022-11-25T19:26:32.381Z,100610.56
2022-11-25T19:29:13.097Z,100623.03
2022-11-25T19:31:43.852Z,100622.13
2022-11-25T19:34:38.330Z,100626.75
2022-11-25T19:37:17.225Z,100627.91
2022-11-25T19:39:49.645Z,100631.72
2022-11-25T19:42:21.093Z,100636.16
2022-11-25T19:44:52.162Z,100634.78
2022-11-25T19:47:28.237Z,100629.41
2022-11-25T19:50:02.336Z,100639.00
2022-11-25T19:52:39.530Z,100632.50
2022-11-25T19:55:16.480Z,100629.94
2022-11-25T19:57:47.875Z,100631.53
2022-11-25T20:00:20.456Z,100628.06
2022-11-25T20:02:56.336Z,100626.91
2022-11-25T20:05:35.339Z,100626.66
2022-11-25T20:08:06.702Z,100619.78
2022-11-25T20:10:37.526Z,100621.38
2022-11-25T20:13:10.314Z,100623.47
2022-11-25T20:15:42.381Z,100618.78
2022-11-25T20:18:21.727Z,100617.75
2022-11-25T20:20:58.694Z,100624.09
2022-11-25T20:23:48.502Z,100619.84
2022-11-25T20:26:41.686Z,100626.13
2022-11-25T20:29:27.508Z,100628.63
2022-11-25T20:32:01.313Z,100623.91
2022-11-25T20:34:36.159Z,100622.13
2022-11-25T20:37:11.085Z,100622.56
2022-11-25T20:39:42.336Z,100628.06
2022-11-25T20:42:14.606Z,100612.97
2022-11-25T20:44:45.755Z,100616.84
2022-11-25T20:47:20.079Z,100620.59
2022-11-25T20:49:50.873Z,100616.41
2022-11-25T20:52:35.203Z,100628.84
2022-11-25T20:55:25.873Z,100620.53
2022-11-25T20:57:57.037Z,100622.75
2022-11-25T21:00:29.931Z,100633.19
2022-11-25T21:03:01.297Z,100625.44
2022-11-25T21:05:32.006Z,100634.28
2022-11-25T21:08:03.281Z,100622.97
2022-11-25T21:10:37.479Z,100621.53
2022-11-25T21:13:15.682Z,100617.72
2022-11-25T21:15:46.907Z,100622.00
2022-11-25T21:18:18.527Z,100614.44
2022-11-25T21:20:50.109Z,100624.66
2022-11-25T21:23:28.942Z,100625.00
2022-11-25T21:26:08.035Z,100615.44
2022-11-25T21:28:42.406Z,100614.78
2022-11-25T21:31:25.144Z,100611.03
2022-11-25T21:34:00.248Z,100617.22
2022-11-25T21:36:32.667Z,100623.47
2022-11-25T21:39:17.937Z,100620.13
2022-11-25T21:41:48.921Z,100616.78
2022-11-25T21:44:28.690Z,100623.38
2022-11-25T21:46:59.872Z,100620.41
2022-11-25T21:49:31.230Z,100625.72
2022-11-25T21:52:02.287Z,100626.16
2022-11-25T21:54:33.544Z,100610.25
2022-11-25T21:57:04.354Z,100621.69
2022-11-25T21:59:35.272Z,100610.91
2022-11-25T22:02:20.033Z,100604.00
2022-11-25T22:04:51.123Z,100604.44
2022-11-25T22:07:25.116Z,100601.38
2022-11-25T22:09:58.867Z,100601.66
2022-11-25T22:12:34.380Z,100604.28
2022-11-25T22:15:12.519Z,100605.06
2022-11-25T22:17:44.129Z,100599.47
2022-11-25T22:20:34.936Z,100607.09
2022-11-25T22:23:18.392Z,100594.88
2022-11-25T22:25:50.325Z,100600.47
2022-11-25T22:28:25.196Z,100615.16
2022-11-25T22:30:58.458Z,100607.66
2022-11-25T22:33:34.337Z,100605.91
2022-11-25T22:36:05.917Z,100598.75
2022-11-25T22:38:36.046Z,100603.78
2022-11-25T22:41:12.539Z,100613.63
2022-11-25T22:43:47.747Z,100611.16
2022-11-25T22:46:18.778Z,100603.31
2022-11-25T22:48:49.880Z,100600.34
2022-11-25T22:51:26.105Z,100599.81
2022-11-25T22:53:56.875Z,100602.72
2022-11-25T22:56:29.506Z,100590.41
2022-11-25T22:59:01.801Z,100593.50
2022-11-25T23:01:32.869Z,100594.78
2022-11-25T23:04:04.566Z,100591.84
2022-11-25T23:06:35.767Z,100600.22
2022-11-25T23:09:07.949Z,100606.91
2022-11-25T23:11:40.113Z,100609.03
2022-11-25T23:14:11.285Z,100602.03
2022-11-25T23:16:44.229Z,100597.16
2022-11-25T23:19:18.786Z,100592.88
2022-11-25T23:21:50.050Z,100600.19
2022-11-25T23:24:21.093Z,100593.34
2022-11-25T23:26:51.820Z,100587.00
2022-11-25T23:29:22.589Z,100591.72
2022-11-25T23:31:53.592Z,100592.00
2022-11-25T23:34:24.556Z,100593.16
2022-11-25T23:36:55.739Z,100582.31
2022-11-25T23:39:28.159Z,100582.03
2022-11-25T23:41:59.386Z,100585.19
2022-11-25T23:44:33.062Z,100594.38
2022-11-25T23:47:06.358Z,100593.34
2022-11-25T23:49:41.106Z,100585.06
2022-11-25T23:52:16.060Z,100593.34
2022-11-25T23:54:49.519Z,100590.25
2022-11-25T23:57:32.286Z,100586.66
